Terminal Aerodrome Forecast
Issued by NWS Greer, SC

Home | Current Version | Previous Version | Text Only | Print | Product List | Glossary On
Versions: 1 2 3 4 5 6 7 8 9 10 11 12 13 14 15 16 17 18 19 20 21 22 23 24 25 26 27 28 29 30 31 32 33 34 35 36
185
FTUS42 KGSP 230655 AAB
TAFGSP
TAF AMD
KGSP 230655Z 2307/2406 23011G20KT P6SM VCSH SCT008 BKN020
     FM230830 23010KT 5SM BR BKN010
     FM231100 24007KT 4SM BR VCSH OVC008
      TEMPO 2311/2314 2SM -SHRA BR BKN003
     FM231400 24005KT P6SM BKN008 PROB30 2316/2321 2SM -SHRA OVC003
     FM232100 28011G18KT P6SM BKN035
     FM240000 30010G17KT P6SM SCT060=

USA.gov is the U.S. government's official web portal to all federal, state and local government web resources and services.